CheckWX is a tool to help pilots better visualize weather data.  It is not intended as a substitute for an official pre-flight weather briefing.

07:57:09 UTC

EGPH TAF
Edinburgh Airport
Edinburgh, United Kingdom
TAF EGPH 280502Z 2806/2906 25009KT 9999 FEW010 SCT030 TEMPO 2809/2906 6000 SHRA BKN012 PROB40 TEMPO 2809/2824 26015G25KT BECMG 2900/2903 25018G30KT

Jan-28@
06:00 UTC

Jan-28 @ 06:00 UTC

Jan-29@
00:00 UTC

Jan-29 @ 00:00 UTC

TAF EGPH 280502Z 2806/2906 25009KT 9999 FEW010 SCT030
Wind
  • 250° at 9 KTS
Cloud Levels
  • Few at 1,000' AGL
  • Scattered at 3,000' AGL

Jan-28@
09:00 UTC

Jan-28 @ 09:00 UTC

Jan-29@
00:00 UTC

Jan-29 @ 00:00 UTC

PROB40 TEMPO 2809/2824 26015G25KT

Temporary - 40% Likelihood

Temporary - 40% Likelihood during this time.

Wind
  • 260° at 15 KTS
  • {Gusting to 25 KTS

Jan-28@
09:00 UTC

Jan-28 @ 09:00 UTC

Jan-29@
06:00 UTC

Jan-29 @ 06:00 UTC

TEMPO 2809/2906 6000 SHRA BKN012

Temporary

Temporary Changes expected for less than half the time period

Conditions
Rain
Cloud Levels
  • Broken at 1,200' AGL

Jan-29@
00:00 UTC

Jan-29 @ 00:00 UTC

Jan-29@
06:00 UTC

Jan-29 @ 06:00 UTC

BECMG 2900/2903 25018G30KT

Becoming

Becoming Conditions expected by Wed, Jan 29, 2020 @ 03:00 UTC

Wind
  • 250° at 18 KTS
  • {Gusting to 30 KTS
Cloud Levels
  • Few at 1,000' AGL
  • Scattered at 3,000' AGL